createdAt,value
2022-10-11T00:02:03.290Z,3.00
2022-10-11T00:04:51.035Z,3.00
2022-10-11T00:07:38.872Z,2.83
2022-10-11T00:10:26.372Z,3.42
2022-10-11T00:13:14.028Z,3.40
2022-10-11T00:16:01.790Z,3.40
2022-10-11T00:18:49.405Z,2.88
2022-10-11T00:21:37.077Z,3.10
2022-10-11T00:24:24.585Z,2.85
2022-10-11T00:27:12.017Z,3.20
2022-10-11T00:29:59.467Z,2.60
2022-10-11T00:32:46.535Z,2.95
2022-10-11T00:35:34.030Z,2.78
2022-10-11T00:38:21.562Z,2.92
2022-10-11T00:41:09.007Z,3.17
2022-10-11T00:44:17.809Z,2.83
2022-10-11T00:47:12.315Z,2.65
2022-10-11T00:50:01.546Z,2.67
2022-10-11T00:52:55.812Z,2.83
2022-10-11T00:55:51.413Z,2.75
2022-10-11T00:58:38.885Z,2.88
2022-10-11T01:01:26.654Z,3.30
2022-10-11T01:04:14.186Z,3.25
2022-10-11T01:07:02.098Z,3.03
2022-10-11T01:09:50.082Z,2.65
2022-10-11T01:12:45.142Z,2.63
2022-10-11T01:15:40.228Z,2.58
2022-10-11T01:18:35.659Z,2.70
2022-10-11T01:21:41.862Z,3.42
2022-10-11T01:24:37.836Z,3.60
2022-10-11T01:27:38.538Z,4.05
2022-10-11T01:30:29.251Z,3.88
2022-10-11T01:33:35.951Z,5.20
2022-10-11T01:36:42.753Z,4.88
2022-10-11T01:39:46.126Z,5.15
2022-10-11T01:42:36.303Z,4.55
2022-10-11T01:45:24.076Z,4.97
2022-10-11T01:48:13.474Z,5.75
2022-10-11T01:51:03.162Z,4.47
2022-10-11T01:54:09.108Z,4.30
2022-10-11T01:57:17.684Z,4.43
2022-10-11T02:00:23.683Z,4.50
2022-10-11T02:03:33.746Z,3.78
2022-10-11T02:06:33.496Z,3.92
2022-10-11T02:09:38.401Z,4.13
2022-10-11T02:12:36.457Z,4.32
2022-10-11T02:15:27.214Z,3.80
2022-10-11T02:18:19.206Z,4.10
2022-10-11T02:21:10.328Z,4.10
2022-10-11T02:24:06.971Z,3.63
2022-10-11T02:26:56.888Z,3.45
2022-10-11T02:29:46.196Z,3.30
2022-10-11T02:32:35.383Z,3.05
2022-10-11T02:35:24.684Z,3.13
2022-10-11T02:38:21.918Z,3.13
2022-10-11T02:41:39.357Z,3.78
2022-10-11T02:44:37.995Z,3.53
2022-10-11T02:47:25.744Z,4.30
2022-10-11T02:50:14.254Z,3.85
2022-10-11T02:53:01.918Z,4.43
2022-10-11T02:55:51.473Z,4.40
2022-10-11T02:58:39.164Z,3.22
2022-10-11T03:01:26.917Z,3.70
2022-10-11T03:04:14.571Z,3.78
2022-10-11T03:07:02.189Z,3.75
2022-10-11T03:09:49.891Z,3.60
2022-10-11T03:12:37.459Z,3.25
2022-10-11T03:15:24.691Z,3.63
2022-10-11T03:18:12.612Z,3.80
2022-10-11T03:21:00.222Z,3.58
2022-10-11T03:23:47.815Z,3.33
2022-10-11T03:26:35.652Z,3.38
2022-10-11T03:29:23.381Z,3.95
2022-10-11T03:32:11.071Z,4.00
2022-10-11T03:34:58.778Z,4.32
2022-10-11T03:37:46.412Z,5.00
2022-10-11T03:40:33.997Z,5.63
2022-10-11T03:43:21.645Z,5.60
2022-10-11T03:46:09.381Z,6.35
2022-10-11T03:48:56.702Z,8.98
2022-10-11T03:51:44.348Z,9.70
2022-10-11T03:54:31.962Z,9.38
2022-10-11T03:57:19.722Z,9.10
2022-10-11T04:00:07.892Z,10.30
2022-10-11T04:02:55.618Z,11.18
2022-10-11T04:05:43.300Z,9.80
2022-10-11T04:08:30.623Z,11.70
2022-10-11T04:11:18.275Z,9.50
2022-10-11T04:14:05.963Z,13.18
2022-10-11T04:16:56.371Z,12.88
2022-10-11T04:19:46.158Z,11.07
2022-10-11T04:22:33.790Z,13.45
2022-10-11T04:25:21.457Z,11.90
2022-10-11T04:28:09.678Z,14.18
2022-10-11T04:30:57.412Z,9.45
2022-10-11T04:33:45.092Z,10.75
2022-10-11T04:36:34.103Z,10.48
2022-10-11T04:39:21.797Z,11.70
2022-10-11T04:42:09.388Z,9.88
2022-10-11T04:44:56.820Z,11.38
2022-10-11T04:47:44.501Z,10.27
2022-10-11T04:50:32.125Z,9.85
2022-10-11T04:53:19.771Z,9.57
2022-10-11T04:56:11.110Z,8.25
2022-10-11T04:58:58.791Z,9.95
2022-10-11T05:01:46.639Z,8.45
2022-10-11T05:04:34.464Z,10.18
2022-10-11T05:07:22.108Z,10.07
2022-10-11T05:10:10.043Z,8.70
2022-10-11T05:12:57.701Z,10.32
2022-10-11T05:15:45.391Z,9.38
2022-10-11T05:18:32.912Z,9.65
2022-10-11T05:21:22.817Z,10.15
2022-10-11T05:24:10.308Z,9.65
2022-10-11T05:27:02.419Z,10.88
2022-10-11T05:29:51.021Z,11.65
2022-10-11T05:32:38.542Z,11.48
2022-10-11T05:35:26.238Z,11.35
2022-10-11T05:38:13.801Z,11.70
2022-10-11T05:41:03.293Z,11.75
2022-10-11T05:43:51.051Z,12.73
2022-10-11T05:46:38.762Z,13.27
2022-10-11T05:49:26.479Z,12.10
2022-10-11T05:52:19.665Z,13.52
2022-10-11T05:55:07.460Z,13.60
2022-10-11T05:57:56.113Z,13.55
2022-10-11T06:00:43.641Z,11.82
2022-10-11T06:03:31.201Z,12.23
2022-10-11T06:06:19.123Z,15.20
2022-10-11T06:09:06.715Z,13.15
2022-10-11T06:11:54.314Z,12.45
2022-10-11T06:14:41.890Z,12.00
2022-10-11T06:17:30.165Z,11.07
2022-10-11T06:20:18.641Z,11.68
2022-10-11T06:23:06.342Z,10.50
2022-10-11T06:26:01.955Z,9.95
2022-10-11T06:28:49.930Z,13.18
2022-10-11T06:31:37.980Z,12.57
2022-10-11T06:34:25.633Z,10.68
2022-10-11T06:37:13.390Z,11.68
2022-10-11T06:40:01.110Z,9.68
2022-10-11T06:42:49.719Z,10.00
2022-10-11T06:45:37.299Z,10.98
2022-10-11T06:48:25.010Z,11.52
2022-10-11T06:51:14.353Z,11.50
2022-10-11T06:54:02.339Z,11.27
2022-10-11T06:56:50.229Z,10.80
2022-10-11T06:59:39.392Z,10.20
2022-10-11T07:02:26.635Z,11.02
2022-10-11T07:05:13.897Z,11.40
2022-10-11T07:08:02.034Z,10.65
2022-10-11T07:10:49.850Z,8.82
2022-10-11T07:13:38.433Z,9.20
2022-10-11T07:16:26.650Z,9.43
2022-10-11T07:19:14.272Z,9.43
2022-10-11T07:22:01.894Z,9.05
2022-10-11T07:24:49.635Z,9.13
2022-10-11T07:27:36.912Z,8.75
2022-10-11T07:30:24.645Z,7.55
2022-10-11T07:33:12.320Z,8.48
2022-10-11T07:36:00.295Z,8.15
2022-10-11T07:38:48.265Z,9.27
2022-10-11T07:41:38.111Z,8.63
2022-10-11T07:44:27.402Z,8.98
2022-10-11T07:47:15.139Z,8.48
2022-10-11T07:50:03.126Z,7.80
2022-10-11T07:52:51.081Z,8.65
2022-10-11T07:55:40.305Z,8.52
2022-10-11T07:58:28.069Z,7.93
2022-10-11T08:01:15.795Z,8.50
2022-10-11T08:04:03.596Z,8.20
2022-10-11T08:06:53.366Z,8.05
2022-10-11T08:09:40.799Z,8.65
2022-10-11T08:12:28.037Z,8.80
2022-10-11T08:15:15.767Z,7.50
2022-10-11T08:18:03.550Z,8.13
2022-10-11T08:20:51.459Z,7.72
2022-10-11T08:23:39.932Z,7.68
2022-10-11T08:26:27.608Z,7.80
2022-10-11T08:29:15.332Z,7.72
2022-10-11T08:32:03.035Z,8.73
2022-10-11T08:34:50.736Z,7.95
2022-10-11T08:37:38.537Z,8.25
2022-10-11T08:40:26.210Z,8.25
2022-10-11T08:43:45.463Z,8.45
2022-10-11T08:46:35.233Z,8.75
2022-10-11T08:49:29.134Z,8.52
2022-10-11T08:52:27.166Z,8.30
2022-10-11T08:55:37.295Z,8.93
2022-10-11T08:58:35.676Z,8.68
2022-10-11T09:01:26.253Z,8.63
2022-10-11T09:04:16.133Z,8.77
2022-10-11T09:07:13.626Z,8.85
2022-10-11T09:10:36.158Z,9.02
2022-10-11T09:13:34.107Z,8.93
2022-10-11T09:16:39.509Z,8.18
2022-10-11T09:20:02.415Z,9.15
2022-10-11T09:23:18.160Z,8.93
2022-10-11T09:26:14.713Z,9.73
2022-10-11T09:29:02.622Z,9.55
2022-10-11T09:31:54.290Z,10.43
2022-10-11T09:34:42.189Z,9.82
2022-10-11T09:37:42.410Z,9.30
2022-10-11T09:40:48.152Z,9.55
2022-10-11T09:43:35.899Z,9.45
2022-10-11T09:46:41.647Z,9.57
2022-10-11T09:49:40.193Z,9.48
2022-10-11T09:52:28.058Z,8.95
2022-10-11T09:55:32.969Z,8.00
2022-10-11T09:58:35.142Z,7.40
2022-10-11T10:01:25.062Z,7.85
2022-10-11T10:04:14.933Z,7.25
2022-10-11T10:07:13.200Z,7.57
2022-10-11T10:10:29.115Z,6.90
2022-10-11T10:13:22.421Z,7.13
2022-10-11T10:16:20.021Z,6.05
2022-10-11T10:19:18.822Z,7.13
2022-10-11T10:22:06.901Z,6.20
2022-10-11T10:24:56.093Z,5.18
2022-10-11T10:27:57.856Z,6.28
2022-10-11T10:30:57.712Z,6.05
2022-10-11T10:33:47.201Z,6.03
2022-10-11T10:36:38.616Z,6.15
2022-10-11T10:39:26.455Z,5.43
2022-10-11T10:42:19.007Z,5.88
2022-10-11T10:45:18.643Z,5.82
2022-10-11T10:48:08.847Z,5.90
2022-10-11T10:51:01.307Z,5.07
2022-10-11T10:53:59.269Z,3.85
2022-10-11T10:56:53.225Z,4.88
2022-10-11T10:59:52.423Z,4.18
2022-10-11T11:02:48.676Z,4.18
2022-10-11T11:06:02.218Z,3.80
2022-10-11T11:09:17.837Z,5.03
2022-10-11T11:12:17.042Z,3.70
2022-10-11T11:15:11.652Z,3.20
2022-10-11T11:18:28.610Z,3.40
2022-10-11T11:21:44.354Z,3.25
2022-10-11T11:24:49.286Z,3.42
2022-10-11T11:28:01.583Z,3.10
2022-10-11T11:31:24.951Z,4.07
2022-10-11T11:34:38.280Z,3.78
2022-10-11T11:37:33.787Z,2.60
2022-10-11T11:40:39.386Z,3.15
2022-10-11T11:43:35.136Z,3.00
2022-10-11T11:46:31.988Z,4.18
2022-10-11T11:49:32.025Z,2.53
2022-10-11T11:52:33.884Z,2.80
2022-10-11T11:55:31.906Z,2.78
2022-10-11T11:58:19.391Z,2.28
2022-10-11T12:01:18.315Z,2.42
2022-10-11T12:04:15.820Z,2.60
2022-10-11T12:07:17.942Z,2.58
2022-10-11T12:10:27.369Z,2.55
2022-10-11T12:13:31.317Z,2.17
2022-10-11T12:16:20.863Z,2.35
2022-10-11T12:19:14.317Z,2.53
2022-10-11T12:22:44.743Z,2.60
2022-10-11T12:25:36.908Z,2.58
2022-10-11T12:28:42.952Z,2.20
2022-10-11T12:31:35.800Z,2.63
2022-10-11T12:34:33.274Z,2.60
2022-10-11T12:37:21.106Z,2.85
2022-10-11T12:40:43.858Z,2.55
2022-10-11T12:43:33.720Z,2.85
2022-10-11T12:46:29.560Z,3.13
2022-10-11T12:49:17.040Z,2.50
2022-10-11T12:52:04.527Z,2.53
2022-10-11T12:55:20.035Z,2.50
2022-10-11T12:58:08.658Z,2.38
2022-10-11T13:00:56.235Z,2.90
2022-10-11T13:03:49.195Z,2.80
2022-10-11T13:06:45.209Z,2.72
2022-10-11T13:09:39.208Z,2.40
2022-10-11T13:12:29.847Z,2.88
2022-10-11T13:15:20.371Z,2.58
2022-10-11T13:18:14.946Z,2.92
2022-10-11T13:21:02.628Z,1.90
2022-10-11T13:23:50.280Z,2.65
2022-10-11T13:26:38.218Z,2.53
2022-10-11T13:29:41.079Z,2.50
2022-10-11T13:32:30.729Z,2.45
2022-10-11T13:35:34.201Z,2.47
2022-10-11T13:38:29.947Z,2.40
2022-10-11T13:41:17.562Z,2.08
2022-10-11T13:44:04.973Z,2.63
2022-10-11T13:46:52.907Z,2.10
2022-10-11T13:49:45.737Z,2.45
2022-10-11T13:52:33.221Z,2.30
2022-10-11T13:55:48.560Z,2.15
2022-10-11T13:58:44.717Z,2.42
2022-10-11T14:01:45.304Z,2.00
2022-10-11T14:04:40.337Z,2.60
2022-10-11T14:07:36.177Z,1.80
2022-10-11T14:10:23.750Z,2.92
2022-10-11T14:13:39.104Z,2.90
2022-10-11T14:16:26.123Z,2.40
2022-10-11T14:19:18.385Z,2.50
2022-10-11T14:22:07.279Z,2.33
2022-10-11T14:24:54.738Z,2.80
2022-10-11T14:27:42.631Z,3.00
2022-10-11T14:30:31.518Z,3.22
2022-10-11T14:33:19.213Z,2.90
2022-10-11T14:36:07.041Z,2.30
2022-10-11T14:38:54.724Z,2.58
2022-10-11T14:41:42.758Z,3.00
2022-10-11T14:44:29.869Z,2.92
2022-10-11T14:47:17.968Z,2.55
2022-10-11T14:50:34.990Z,2.50
2022-10-11T14:53:22.291Z,2.88
2022-10-11T14:56:10.073Z,2.13
2022-10-11T14:58:57.230Z,2.90
2022-10-11T15:01:46.613Z,2.55
2022-10-11T15:04:34.199Z,3.15
2022-10-11T15:07:21.684Z,1.80
2022-10-11T15:10:27.803Z,2.08
2022-10-11T15:13:15.286Z,2.58
2022-10-11T15:16:03.392Z,2.38
2022-10-11T15:18:51.888Z,2.80
2022-10-11T15:21:39.408Z,2.45
2022-10-11T15:24:27.905Z,2.40
2022-10-11T15:27:17.167Z,1.75
2022-10-11T15:30:27.937Z,2.05
2022-10-11T15:33:15.447Z,2.22
2022-10-11T15:36:03.325Z,1.98
2022-10-11T15:38:51.028Z,2.05
2022-10-11T15:41:38.088Z,2.05
2022-10-11T15:44:25.576Z,2.00
2022-10-11T15:47:13.078Z,2.00
2022-10-11T15:50:00.630Z,1.88
2022-10-11T15:52:48.112Z,2.60
2022-10-11T15:55:39.593Z,2.63
2022-10-11T15:58:29.518Z,3.38
2022-10-11T16:01:19.615Z,2.72
2022-10-11T16:04:07.169Z,2.70
2022-10-11T16:06:54.673Z,2.65
2022-10-11T16:09:42.144Z,2.65
2022-10-11T16:12:29.634Z,2.58
2022-10-11T16:15:17.060Z,2.40
2022-10-11T16:18:04.909Z,2.35
2022-10-11T16:20:52.460Z,2.60
2022-10-11T16:23:39.980Z,2.90
2022-10-11T16:26:27.481Z,3.55
2022-10-11T16:29:14.977Z,3.80
2022-10-11T16:32:02.097Z,3.33
2022-10-11T16:34:49.596Z,3.70
2022-10-11T16:37:37.061Z,3.47
2022-10-11T16:40:26.569Z,3.33
2022-10-11T16:43:14.050Z,3.22
2022-10-11T16:46:01.496Z,3.45
2022-10-11T16:48:49.198Z,3.38
2022-10-11T16:51:36.377Z,3.30
2022-10-11T16:54:23.849Z,2.97
2022-10-11T16:57:13.059Z,3.42
2022-10-11T17:00:00.521Z,3.92
2022-10-11T17:02:48.014Z,3.47
2022-10-11T17:05:36.499Z,3.10
2022-10-11T17:08:24.017Z,3.05
2022-10-11T17:11:11.479Z,3.38
2022-10-11T17:14:00.759Z,2.45
2022-10-11T17:16:48.297Z,2.65
2022-10-11T17:19:35.946Z,2.97
2022-10-11T17:22:23.486Z,3.72
2022-10-11T17:25:10.969Z,2.72
2022-10-11T17:27:58.500Z,4.13
2022-10-11T17:30:56.904Z,3.63
2022-10-11T17:33:44.358Z,3.90
2022-10-11T17:36:36.222Z,3.95
2022-10-11T17:39:24.365Z,3.90
2022-10-11T17:42:11.990Z,4.80
2022-10-11T17:44:59.067Z,5.40
2022-10-11T17:47:46.301Z,6.10
2022-10-11T17:50:33.828Z,6.65
2022-10-11T17:53:21.709Z,6.63
2022-10-11T17:56:11.995Z,7.03
2022-10-11T17:58:59.610Z,7.13
2022-10-11T18:01:47.279Z,7.90
2022-10-11T18:04:35.237Z,19.67
2022-10-11T18:07:24.034Z,26.77
2022-10-11T18:10:11.562Z,22.17
2022-10-11T18:13:01.988Z,17.83
2022-10-11T18:15:53.750Z,13.10
2022-10-11T18:18:42.237Z,11.00
2022-10-11T18:21:34.227Z,11.75
2022-10-11T18:24:22.362Z,11.52
2022-10-11T18:27:09.862Z,10.20
2022-10-11T18:29:57.448Z,8.07
2022-10-11T18:32:44.999Z,7.30
2022-10-11T18:35:32.479Z,7.38
2022-10-11T18:38:19.997Z,7.63
2022-10-11T18:41:09.809Z,7.03
2022-10-11T18:44:02.447Z,7.50
2022-10-11T18:46:50.987Z,6.88
2022-10-11T18:49:38.484Z,6.88
2022-10-11T18:52:26.034Z,8.40
2022-10-11T18:55:13.535Z,7.85
2022-10-11T18:58:01.398Z,7.47
2022-10-11T19:00:49.078Z,6.60
2022-10-11T19:03:37.044Z,6.93
2022-10-11T19:06:30.205Z,7.50
2022-10-11T19:09:25.966Z,7.22
2022-10-11T19:12:13.787Z,7.05
2022-10-11T19:15:01.753Z,6.25
2022-10-11T19:17:49.204Z,6.18
2022-10-11T19:20:36.707Z,6.47
2022-10-11T19:23:24.294Z,6.57
2022-10-11T19:26:23.141Z,6.50
2022-10-11T19:29:10.628Z,6.47
2022-10-11T19:32:00.149Z,5.90
2022-10-11T19:34:47.669Z,5.95
2022-10-11T19:37:35.205Z,6.05
2022-10-11T19:40:22.713Z,5.70
2022-10-11T19:43:10.270Z,5.90
2022-10-11T19:46:27.273Z,5.85
2022-10-11T19:49:25.777Z,5.57
2022-10-11T19:52:13.701Z,6.97
2022-10-11T19:55:01.167Z,5.28
2022-10-11T19:57:48.664Z,6.78
2022-10-11T20:00:36.197Z,7.03
2022-10-11T20:03:23.294Z,8.05
2022-10-11T20:06:11.263Z,7.10
2022-10-11T20:09:23.930Z,7.18
2022-10-11T20:12:06.310Z,6.90
2022-10-11T20:14:53.833Z,9.88
2022-10-11T20:18:42.641Z,8.95
2022-10-11T20:21:32.991Z,7.00
2022-10-11T20:24:20.618Z,7.30
2022-10-11T20:27:08.196Z,6.88
2022-10-11T20:29:55.263Z,7.50
2022-10-11T20:32:42.739Z,6.97
2022-10-11T20:35:30.215Z,5.95
2022-10-11T20:38:17.644Z,6.35
2022-10-11T20:41:08.598Z,6.82
2022-10-11T20:43:57.631Z,6.22
2022-10-11T20:46:45.116Z,5.78
2022-10-11T20:49:32.228Z,7.57
2022-10-11T20:52:19.709Z,11.20
2022-10-11T20:55:07.317Z,8.23
2022-10-11T20:57:56.141Z,9.80
2022-10-11T21:00:43.847Z,8.88
2022-10-11T21:03:31.318Z,7.07
2022-10-11T21:06:18.804Z,6.28
2022-10-11T21:09:06.280Z,5.78
2022-10-11T21:11:53.800Z,5.45
2022-10-11T21:14:41.252Z,4.93
2022-10-11T21:17:28.751Z,10.55
2022-10-11T21:20:16.274Z,18.55
2022-10-11T21:23:03.762Z,14.93
2022-10-11T21:25:51.240Z,15.10
2022-10-11T21:28:39.092Z,6.43
2022-10-11T21:31:31.270Z,6.03
2022-10-11T21:34:20.338Z,8.45
2022-10-11T21:37:07.947Z,8.30
2022-10-11T21:39:54.969Z,33.58
2022-10-11T21:42:42.464Z,6.45
2022-10-11T21:45:29.933Z,6.18
2022-10-11T21:48:17.801Z,5.20
2022-10-11T21:51:05.566Z,20.95
2022-10-11T21:53:54.944Z,7.47
2022-10-11T21:56:42.537Z,7.05
2022-10-11T21:59:30.031Z,6.40
2022-10-11T22:02:17.516Z,5.47
2022-10-11T22:05:05.141Z,5.53
2022-10-11T22:07:52.179Z,5.00
2022-10-11T22:10:42.536Z,5.25
2022-10-11T22:13:32.136Z,5.70
2022-10-11T22:16:20.149Z,5.47
2022-10-11T22:19:07.629Z,4.68
2022-10-11T22:21:55.198Z,4.90
2022-10-11T22:24:42.652Z,5.38
2022-10-11T22:27:30.120Z,5.55
2022-10-11T22:30:17.637Z,4.70
2022-10-11T22:33:05.166Z,4.82
2022-10-11T22:35:57.519Z,5.38
2022-10-11T22:38:45.479Z,5.07
2022-10-11T22:41:32.992Z,4.90
2022-10-11T22:44:20.456Z,5.75
2022-10-11T22:47:07.961Z,4.53
2022-10-11T22:49:55.466Z,5.25
2022-10-11T22:52:42.904Z,4.68
2022-10-11T22:55:30.401Z,5.07
2022-10-11T22:58:17.890Z,4.28
2022-10-11T23:01:10.246Z,4.55
2022-10-11T23:03:57.996Z,4.40
2022-10-11T23:06:45.248Z,4.95
2022-10-11T23:09:32.852Z,4.50
2022-10-11T23:12:20.450Z,5.10
2022-10-11T23:15:08.334Z,4.88
2022-10-11T23:17:56.013Z,4.38
2022-10-11T23:20:43.613Z,4.80
2022-10-11T23:23:31.363Z,4.78
2022-10-11T23:26:18.443Z,4.38
2022-10-11T23:29:06.207Z,4.85
2022-10-11T23:31:53.310Z,5.18
2022-10-11T23:34:40.777Z,5.05
2022-10-11T23:37:28.197Z,5.00
2022-10-11T23:40:15.587Z,4.95
2022-10-11T23:43:03.289Z,4.88
2022-10-11T23:45:51.176Z,5.07
2022-10-11T23:48:38.666Z,5.00
2022-10-11T23:51:26.182Z,5.13
2022-10-11T23:54:13.225Z,5.03
2022-10-11T23:57:00.681Z,5.63
2022-10-11T23:59:48.149Z,5.05
